GLD1287 SBBV-TGPY
Flight info
| Callsign | GLD1287 |
|---|---|
| Flight time | 1h 45m |
| Altitude | 38000 |
| Route | ANLO1A ILNER ILNER UM402 POS DCT IMORO R10 |
| Aircraft | C25C/M-SDFGIRY/S |
Departure
| Time | 2026-04-26 15:32 |
|---|---|
| Airport | Atlas Brasil Cantanhede International Airport (SBBV) |
Arrival
| Time | 2026-04-26 17:18 |
|---|---|
| Airport | Maurice Bishop International Airport (TGPY) |
| Time | Latitude | Longitude | Altitude | Speed | Heading |
|---|---|---|---|---|---|
| 2026-04-26 15:16 | 2.84471 | -60.68915 | 254 ft | 0 kts | 153° |
| 2026-04-26 15:22 | 2.84470 | -60.68915 | 254 ft | 2 kts | 153° |
| 2026-04-26 15:23 | 2.84465 | -60.68905 | 274 ft | 4 kts | 87° |
| 2026-04-26 15:23 | 2.84497 | -60.68879 | 274 ft | 8 kts | 346° |
| 2026-04-26 15:23 | 2.84500 | -60.68933 | 274 ft | 11 kts | 242° |
| 2026-04-26 15:23 | 2.84458 | -60.69015 | 274 ft | 16 kts | 243° |
| 2026-04-26 15:24 | 2.84402 | -60.69125 | 273 ft | 20 kts | 243° |
| 2026-04-26 15:24 | 2.84333 | -60.69259 | 273 ft | 23 kts | 242° |
| 2026-04-26 15:24 | 2.84256 | -60.69410 | 273 ft | 25 kts | 243° |
| 2026-04-26 15:24 | 2.84181 | -60.69555 | 273 ft | 22 kts | 242° |
| 2026-04-26 15:25 | 2.84107 | -60.69697 | 273 ft | 24 kts | 243° |
| 2026-04-26 15:25 | 2.84057 | -60.69798 | 273 ft | 25 kts | 243° |
| 2026-04-26 15:25 | 2.83975 | -60.69957 | 273 ft | 17 kts | 243° |
| 2026-04-26 15:25 | 2.83972 | -60.70016 | 273 ft | 9 kts | 327° |
| 2026-04-26 15:26 | 2.83998 | -60.70031 | 274 ft | 0 kts | 332° |
| 2026-04-26 15:30 | 2.83999 | -60.70031 | 274 ft | 3 kts | 332° |
| 2026-04-26 15:30 | 2.84079 | -60.70068 | 274 ft | 10 kts | 21° |
| 2026-04-26 15:30 | 2.84095 | -60.70050 | 274 ft | 0 kts | 60° |
| 2026-04-26 15:31 | 2.84686 | -60.68895 | 495 ft | 170 kts | 63° |
| 2026-04-26 15:31 | 2.85374 | -60.67643 | 667 ft | 244 kts | 61° |
| 2026-04-26 15:32 | 2.86323 | -60.65739 | 3331 ft | 210 kts | 65° |
| 2026-04-26 15:32 | 2.87299 | -60.63793 | 6339 ft | 167 kts | 64° |
| 2026-04-26 15:32 | 2.87869 | -60.62868 | 7554 ft | 152 kts | 47° |
| 2026-04-26 15:33 | 2.88773 | -60.62261 | 8373 ft | 161 kts | 25° |
| 2026-04-26 15:33 | 2.89890 | -60.62095 | 9219 ft | 166 kts | 357° |
| 2026-04-26 15:33 | 2.91045 | -60.62275 | 10050 ft | 169 kts | 352° |
| 2026-04-26 15:33 | 2.92221 | -60.62458 | 10831 ft | 172 kts | 351° |
| 2026-04-26 15:34 | 2.93404 | -60.62658 | 11615 ft | 174 kts | 353° |
| 2026-04-26 15:34 | 2.94605 | -60.62855 | 12391 ft | 176 kts | 352° |
| 2026-04-26 15:34 | 2.95822 | -60.63050 | 13162 ft | 178 kts | 353° |
| 2026-04-26 15:34 | 2.97057 | -60.63254 | 13922 ft | 181 kts | 353° |
| 2026-04-26 15:35 | 2.98304 | -60.63457 | 14607 ft | 183 kts | 353° |
| 2026-04-26 15:35 | 2.99566 | -60.63660 | 15301 ft | 185 kts | 353° |
| 2026-04-26 15:35 | 3.00839 | -60.63871 | 15995 ft | 186 kts | 353° |
| 2026-04-26 15:35 | 3.02117 | -60.64077 | 16679 ft | 188 kts | 352° |
| 2026-04-26 15:36 | 3.03407 | -60.64286 | 17368 ft | 190 kts | 353° |
| 2026-04-26 15:36 | 3.04721 | -60.64503 | 18061 ft | 193 kts | 353° |
| 2026-04-26 15:36 | 3.06053 | -60.64718 | 18688 ft | 195 kts | 352° |
| 2026-04-26 15:36 | 3.07396 | -60.64936 | 19283 ft | 197 kts | 353° |
| 2026-04-26 15:37 | 3.08750 | -60.65159 | 19886 ft | 198 kts | 353° |
| 2026-04-26 15:37 | 3.09657 | -60.65304 | 20298 ft | 200 kts | 353° |
| 2026-04-26 15:37 | 3.11034 | -60.65531 | 20936 ft | 202 kts | 354° |
| 2026-04-26 15:37 | 3.12430 | -60.65757 | 21536 ft | 204 kts | 354° |
| 2026-04-26 15:38 | 3.13838 | -60.65985 | 22137 ft | 206 kts | 354° |
| 2026-04-26 15:38 | 3.15260 | -60.66219 | 22752 ft | 208 kts | 354° |
| 2026-04-26 15:38 | 3.16698 | -60.66451 | 23359 ft | 211 kts | 354° |
| 2026-04-26 15:38 | 3.18149 | -60.66688 | 23914 ft | 212 kts | 355° |
| 2026-04-26 15:39 | 3.19616 | -60.66929 | 24424 ft | 214 kts | 355° |
| 2026-04-26 15:39 | 3.21093 | -60.67167 | 24941 ft | 216 kts | 355° |
| 2026-04-26 15:39 | 3.22583 | -60.67411 | 25458 ft | 218 kts | 355° |
| 2026-04-26 15:39 | 3.23578 | -60.67572 | 25800 ft | 219 kts | 354° |
| 2026-04-26 15:40 | 3.25604 | -60.67902 | 26499 ft | 221 kts | 355° |
| 2026-04-26 15:40 | 3.27131 | -60.68152 | 27015 ft | 223 kts | 355° |
| 2026-04-26 15:40 | 3.28672 | -60.68404 | 27530 ft | 226 kts | 355° |
| 2026-04-26 15:40 | 3.30229 | -60.68655 | 28041 ft | 228 kts | 355° |
| 2026-04-26 15:41 | 3.31481 | -60.68862 | 28434 ft | 230 kts | 355° |
| 2026-04-26 15:41 | 3.33041 | -60.69115 | 28986 ft | 230 kts | 355° |
| 2026-04-26 15:41 | 3.34611 | -60.69371 | 29550 ft | 229 kts | 355° |
| 2026-04-26 15:41 | 3.36185 | -60.69630 | 30103 ft | 229 kts | 355° |
| 2026-04-26 15:42 | 3.37753 | -60.69883 | 30571 ft | 228 kts | 355° |
| 2026-04-26 15:42 | 3.39317 | -60.70138 | 31033 ft | 228 kts | 355° |
| 2026-04-26 15:42 | 3.40877 | -60.70394 | 31492 ft | 227 kts | 355° |
| 2026-04-26 15:42 | 3.42436 | -60.70646 | 31948 ft | 226 kts | 355° |
| 2026-04-26 15:43 | 3.43989 | -60.70899 | 32396 ft | 226 kts | 355° |
| 2026-04-26 15:43 | 3.45539 | -60.71153 | 32846 ft | 225 kts | 355° |
| 2026-04-26 15:43 | 3.48627 | -60.71656 | 33721 ft | 224 kts | 356° |
| 2026-04-26 15:44 | 3.50167 | -60.71908 | 34135 ft | 224 kts | 355° |
| 2026-04-26 15:44 | 3.53222 | -60.72405 | 34861 ft | 223 kts | 355° |
| 2026-04-26 15:44 | 3.54751 | -60.72655 | 35225 ft | 223 kts | 355° |
| 2026-04-26 15:45 | 3.57807 | -60.73153 | 35950 ft | 222 kts | 355° |
| 2026-04-26 15:45 | 3.59333 | -60.73402 | 36308 ft | 222 kts | 354° |
| 2026-04-26 15:46 | 3.61389 | -60.73735 | 36776 ft | 222 kts | 354° |
| 2026-04-26 15:47 | 3.62682 | -60.73950 | 37074 ft | 221 kts | 354° |
| 2026-04-26 15:48 | 3.64203 | -60.74197 | 37407 ft | 222 kts | 353° |
| 2026-04-26 15:48 | 3.65726 | -60.74442 | 37800 ft | 222 kts | 353° |
| 2026-04-26 15:48 | 3.67286 | -60.74698 | 37957 ft | 234 kts | 353° |
| 2026-04-26 15:48 | 3.68954 | -60.74968 | 38002 ft | 252 kts | 353° |
| 2026-04-26 15:49 | 3.70742 | -60.75259 | 38010 ft | 269 kts | 353° |
| 2026-04-26 15:49 | 3.72641 | -60.75571 | 38006 ft | 284 kts | 352° |
| 2026-04-26 15:49 | 3.72758 | -60.75590 | 38009 ft | 285 kts | 352° |
| 2026-04-26 15:49 | 3.73360 | -60.75687 | 37992 ft | 291 kts | 353° |
| 2026-04-26 15:50 | 3.75405 | -60.76022 | 37989 ft | 306 kts | 352° |
| 2026-04-26 15:50 | 3.77559 | -60.76372 | 37991 ft | 320 kts | 352° |
| 2026-04-26 15:50 | 3.79802 | -60.76739 | 37995 ft | 334 kts | 352° |
| 2026-04-26 15:50 | 3.82136 | -60.77120 | 37996 ft | 347 kts | 352° |
| 2026-04-26 15:51 | 3.84560 | -60.77515 | 37995 ft | 359 kts | 352° |
| 2026-04-26 15:51 | 3.87062 | -60.77919 | 37991 ft | 370 kts | 353° |
| 2026-04-26 15:51 | 3.89658 | -60.78163 | 37991 ft | 380 kts | 356° |
| 2026-04-26 15:52 | 3.95056 | -60.78653 | 37987 ft | 399 kts | 356° |
| 2026-04-26 15:52 | 4.00689 | -60.79167 | 37988 ft | 413 kts | 356° |
| 2026-04-26 15:53 | 4.06125 | -60.79659 | 37981 ft | 425 kts | 356° |
| 2026-04-26 15:53 | 4.11950 | -60.80189 | 37983 ft | 434 kts | 356° |
| 2026-04-26 15:54 | 4.17912 | -60.80730 | 37985 ft | 442 kts | 356° |
| 2026-04-26 15:54 | 4.24073 | -60.81291 | 37986 ft | 448 kts | 356° |
| 2026-04-26 15:55 | 4.30261 | -60.81854 | 37987 ft | 440 kts | 356° |
| 2026-04-26 15:55 | 4.36207 | -60.82395 | 37978 ft | 427 kts | 356° |
| 2026-04-26 15:56 | 4.42052 | -60.82926 | 37973 ft | 417 kts | 356° |
| 2026-04-26 15:56 | 4.44135 | -60.83116 | 37973 ft | 414 kts | 356° |
| 2026-04-26 15:57 | 4.47541 | -60.83426 | 37977 ft | 409 kts | 356° |
| 2026-04-26 15:58 | 4.53164 | -60.83937 | 37982 ft | 403 kts | 356° |
| 2026-04-26 15:58 | 4.58716 | -60.84441 | 37981 ft | 398 kts | 356° |
| 2026-04-26 15:59 | 4.64208 | -60.84941 | 37981 ft | 394 kts | 356° |
| 2026-04-26 15:59 | 4.69633 | -60.85435 | 37981 ft | 391 kts | 356° |
| 2026-04-26 16:00 | 4.75039 | -60.85940 | 37984 ft | 389 kts | 356° |
| 2026-04-26 16:00 | 4.80412 | -60.86449 | 37978 ft | 387 kts | 356° |
| 2026-04-26 16:01 | 4.85763 | -60.86950 | 37979 ft | 386 kts | 356° |
| 2026-04-26 16:01 | 4.91103 | -60.87454 | 37980 ft | 385 kts | 356° |
| 2026-04-26 16:02 | 4.96429 | -60.87956 | 37983 ft | 384 kts | 356° |
| 2026-04-26 16:02 | 5.01711 | -60.88453 | 37977 ft | 384 kts | 356° |
| 2026-04-26 16:03 | 5.07023 | -60.88952 | 37974 ft | 383 kts | 356° |
| 2026-04-26 16:03 | 5.12326 | -60.89451 | 37973 ft | 383 kts | 356° |
| 2026-04-26 16:04 | 5.17626 | -60.89952 | 37974 ft | 382 kts | 356° |
| 2026-04-26 16:04 | 5.22914 | -60.90450 | 37974 ft | 382 kts | 356° |
| 2026-04-26 16:05 | 5.28201 | -60.90948 | 37972 ft | 381 kts | 356° |
| 2026-04-26 16:05 | 5.33483 | -60.91445 | 37969 ft | 381 kts | 356° |
| 2026-04-26 16:06 | 5.38767 | -60.91944 | 37969 ft | 381 kts | 356° |
| 2026-04-26 16:06 | 5.44050 | -60.92434 | 37969 ft | 381 kts | 357° |
| 2026-04-26 16:07 | 5.49335 | -60.92902 | 37967 ft | 381 kts | 356° |
| 2026-04-26 16:07 | 5.54621 | -60.93384 | 37960 ft | 381 kts | 357° |
| 2026-04-26 16:08 | 5.59900 | -60.93857 | 37965 ft | 381 kts | 357° |
| 2026-04-26 16:08 | 5.65178 | -60.94334 | 37966 ft | 381 kts | 357° |
| 2026-04-26 16:09 | 5.70454 | -60.94811 | 37958 ft | 380 kts | 357° |
| 2026-04-26 16:09 | 5.75731 | -60.95286 | 37961 ft | 380 kts | 357° |
| 2026-04-26 16:10 | 5.81003 | -60.95762 | 37958 ft | 381 kts | 357° |
| 2026-04-26 16:10 | 5.86277 | -60.96237 | 37961 ft | 380 kts | 356° |
| 2026-04-26 16:11 | 5.91553 | -60.96714 | 37957 ft | 380 kts | 356° |
| 2026-04-26 16:11 | 5.96790 | -60.97188 | 37960 ft | 380 kts | 356° |
| 2026-04-26 16:12 | 6.02062 | -60.97663 | 37955 ft | 381 kts | 356° |
| 2026-04-26 16:12 | 6.09970 | -60.98378 | 37951 ft | 380 kts | 356° |
| 2026-04-26 16:13 | 6.15244 | -60.98855 | 37948 ft | 380 kts | 356° |
| 2026-04-26 16:13 | 6.20514 | -60.99330 | 37941 ft | 380 kts | 356° |
| 2026-04-26 16:14 | 6.25785 | -60.99807 | 37941 ft | 380 kts | 356° |
| 2026-04-26 16:15 | 6.33694 | -61.00523 | 37934 ft | 381 kts | 356° |
| 2026-04-26 16:15 | 6.38971 | -61.00999 | 37930 ft | 381 kts | 356° |
| 2026-04-26 16:16 | 6.46890 | -61.01716 | 37926 ft | 381 kts | 356° |
| 2026-04-26 16:16 | 6.52168 | -61.02194 | 37927 ft | 381 kts | 356° |
| 2026-04-26 16:17 | 6.57449 | -61.02671 | 37925 ft | 381 kts | 356° |
| 2026-04-26 16:17 | 6.62727 | -61.03149 | 37919 ft | 381 kts | 356° |
| 2026-04-26 16:18 | 6.70652 | -61.03867 | 37920 ft | 381 kts | 356° |
| 2026-04-26 16:19 | 6.78585 | -61.04618 | 37922 ft | 383 kts | 356° |
| 2026-04-26 16:20 | 6.86544 | -61.05367 | 37921 ft | 383 kts | 356° |
| 2026-04-26 16:20 | 6.94460 | -61.06117 | 37922 ft | 382 kts | 356° |
| 2026-04-26 16:21 | 6.99756 | -61.06618 | 37921 ft | 382 kts | 356° |
| 2026-04-26 16:21 | 7.05051 | -61.07120 | 37919 ft | 382 kts | 356° |
| 2026-04-26 16:22 | 7.10348 | -61.07620 | 37921 ft | 382 kts | 356° |
| 2026-04-26 16:22 | 7.15639 | -61.08121 | 37923 ft | 382 kts | 356° |
| 2026-04-26 16:23 | 7.20934 | -61.08623 | 37922 ft | 382 kts | 356° |
| 2026-04-26 16:23 | 7.26233 | -61.09124 | 37924 ft | 382 kts | 356° |
| 2026-04-26 16:24 | 7.31530 | -61.09626 | 37923 ft | 383 kts | 356° |
| 2026-04-26 16:24 | 7.36827 | -61.10128 | 37924 ft | 383 kts | 356° |
| 2026-04-26 16:25 | 7.42135 | -61.10631 | 37923 ft | 383 kts | 356° |
| 2026-04-26 16:25 | 7.47441 | -61.11134 | 37923 ft | 383 kts | 355° |
| 2026-04-26 16:26 | 7.51850 | -61.11552 | 37922 ft | 383 kts | 356° |
| 2026-04-26 16:26 | 7.57159 | -61.12056 | 37929 ft | 383 kts | 355° |
| 2026-04-26 16:27 | 7.62473 | -61.12560 | 37926 ft | 384 kts | 355° |
| 2026-04-26 16:27 | 7.67789 | -61.13064 | 37925 ft | 384 kts | 355° |
| 2026-04-26 16:28 | 7.73107 | -61.13569 | 37931 ft | 384 kts | 355° |
| 2026-04-26 16:28 | 7.78427 | -61.14074 | 37930 ft | 384 kts | 355° |
| 2026-04-26 16:29 | 7.83749 | -61.14580 | 37931 ft | 384 kts | 355° |
| 2026-04-26 16:29 | 7.89066 | -61.15085 | 37931 ft | 384 kts | 355° |
| 2026-04-26 16:30 | 7.94389 | -61.15590 | 37933 ft | 384 kts | 355° |
| 2026-04-26 16:30 | 7.99713 | -61.16096 | 37928 ft | 384 kts | 355° |
| 2026-04-26 16:31 | 8.05038 | -61.16603 | 37932 ft | 384 kts | 355° |
| 2026-04-26 16:31 | 8.10366 | -61.17109 | 37931 ft | 384 kts | 355° |
| 2026-04-26 16:32 | 8.15688 | -61.17615 | 37931 ft | 384 kts | 355° |
| 2026-04-26 16:32 | 8.21017 | -61.18122 | 37932 ft | 384 kts | 355° |
| 2026-04-26 16:33 | 8.26309 | -61.18626 | 37932 ft | 384 kts | 355° |
| 2026-04-26 16:33 | 8.31636 | -61.19133 | 37929 ft | 385 kts | 355° |
| 2026-04-26 16:34 | 8.36998 | -61.19643 | 37934 ft | 385 kts | 354° |
| 2026-04-26 16:34 | 8.42288 | -61.20148 | 37932 ft | 385 kts | 354° |
| 2026-04-26 16:35 | 8.47615 | -61.20655 | 37934 ft | 384 kts | 354° |
| 2026-04-26 16:35 | 8.52946 | -61.21136 | 37934 ft | 385 kts | 355° |
| 2026-04-26 16:36 | 8.58276 | -61.21624 | 37934 ft | 385 kts | 354° |
| 2026-04-26 16:36 | 8.63605 | -61.22113 | 37931 ft | 385 kts | 354° |
| 2026-04-26 16:37 | 8.68943 | -61.22600 | 37933 ft | 385 kts | 354° |
| 2026-04-26 16:37 | 8.74285 | -61.23090 | 37932 ft | 385 kts | 354° |
| 2026-04-26 16:38 | 8.79623 | -61.23578 | 37931 ft | 385 kts | 354° |
| 2026-04-26 16:38 | 8.84964 | -61.24068 | 37933 ft | 386 kts | 354° |
| 2026-04-26 16:39 | 8.90312 | -61.24558 | 37932 ft | 386 kts | 354° |
| 2026-04-26 16:39 | 8.95663 | -61.25049 | 37935 ft | 386 kts | 354° |
| 2026-04-26 16:40 | 9.01012 | -61.25539 | 37936 ft | 386 kts | 354° |
| 2026-04-26 16:40 | 9.06360 | -61.26030 | 37934 ft | 386 kts | 354° |
| 2026-04-26 16:41 | 9.11717 | -61.26522 | 37935 ft | 387 kts | 354° |
| 2026-04-26 16:41 | 9.17083 | -61.27014 | 37933 ft | 387 kts | 354° |
| 2026-04-26 16:42 | 9.22448 | -61.27506 | 37932 ft | 387 kts | 354° |
| 2026-04-26 16:42 | 9.27820 | -61.27999 | 37937 ft | 388 kts | 354° |
| 2026-04-26 16:43 | 9.33193 | -61.28493 | 37939 ft | 388 kts | 354° |
| 2026-04-26 16:43 | 9.38528 | -61.28983 | 37934 ft | 388 kts | 354° |
| 2026-04-26 16:44 | 9.43898 | -61.29477 | 37935 ft | 388 kts | 354° |
| 2026-04-26 16:44 | 9.49269 | -61.29971 | 37936 ft | 388 kts | 354° |
| 2026-04-26 16:45 | 9.54643 | -61.30465 | 37934 ft | 388 kts | 354° |
| 2026-04-26 16:45 | 9.60017 | -61.30960 | 37933 ft | 388 kts | 354° |
| 2026-04-26 16:46 | 9.65390 | -61.31453 | 37934 ft | 388 kts | 354° |
| 2026-04-26 16:46 | 9.70664 | -61.31939 | 37935 ft | 387 kts | 354° |
| 2026-04-26 16:47 | 9.76029 | -61.32433 | 37936 ft | 387 kts | 354° |
| 2026-04-26 16:47 | 9.81395 | -61.32928 | 37938 ft | 387 kts | 354° |
| 2026-04-26 16:48 | 9.86757 | -61.33422 | 37943 ft | 387 kts | 354° |
| 2026-04-26 16:48 | 9.92122 | -61.33924 | 37942 ft | 387 kts | 354° |
| 2026-04-26 16:49 | 9.97479 | -61.34455 | 37943 ft | 387 kts | 354° |
| 2026-04-26 16:49 | 10.02838 | -61.34971 | 37943 ft | 387 kts | 354° |
| 2026-04-26 16:50 | 10.08191 | -61.35493 | 37944 ft | 387 kts | 354° |
| 2026-04-26 16:50 | 10.13555 | -61.36015 | 37944 ft | 387 kts | 354° |
| 2026-04-26 16:51 | 10.18918 | -61.36536 | 37947 ft | 387 kts | 354° |
| 2026-04-26 16:51 | 10.24246 | -61.37055 | 37949 ft | 387 kts | 354° |
| 2026-04-26 16:52 | 10.28745 | -61.37493 | 37951 ft | 388 kts | 354° |
| 2026-04-26 16:52 | 10.34989 | -61.38101 | 37954 ft | 388 kts | 354° |
| 2026-04-26 16:53 | 10.40398 | -61.38628 | 37956 ft | 388 kts | 354° |
| 2026-04-26 16:53 | 10.45746 | -61.39152 | 37956 ft | 388 kts | 353° |
| 2026-04-26 16:54 | 10.48413 | -61.39662 | 37528 ft | 398 kts | 345° |
| 2026-04-26 16:54 | 10.51102 | -61.40366 | 36898 ft | 400 kts | 344° |
| 2026-04-26 16:54 | 10.53800 | -61.41070 | 36286 ft | 401 kts | 345° |
| 2026-04-26 16:54 | 10.56552 | -61.41763 | 35665 ft | 403 kts | 345° |
| 2026-04-26 16:55 | 10.59243 | -61.42438 | 35053 ft | 404 kts | 345° |
| 2026-04-26 16:55 | 10.61981 | -61.43138 | 34431 ft | 406 kts | 344° |
| 2026-04-26 16:55 | 10.64725 | -61.43841 | 33782 ft | 408 kts | 344° |
| 2026-04-26 16:55 | 10.67473 | -61.44542 | 33142 ft | 407 kts | 345° |
| 2026-04-26 16:56 | 10.72962 | -61.45936 | 31894 ft | 406 kts | 345° |
| 2026-04-26 16:56 | 10.75694 | -61.46635 | 31271 ft | 405 kts | 345° |
| 2026-04-26 16:56 | 10.78427 | -61.47330 | 30652 ft | 404 kts | 345° |
| 2026-04-26 16:57 | 10.81150 | -61.48026 | 30030 ft | 404 kts | 345° |
| 2026-04-26 16:57 | 10.83868 | -61.48717 | 29363 ft | 401 kts | 345° |
| 2026-04-26 16:57 | 10.89218 | -61.50083 | 28146 ft | 391 kts | 345° |
| 2026-04-26 16:58 | 10.91840 | -61.50751 | 27546 ft | 386 kts | 345° |
| 2026-04-26 16:58 | 10.93596 | -61.51199 | 27149 ft | 383 kts | 345° |
| 2026-04-26 16:58 | 10.99537 | -61.52717 | 25797 ft | 375 kts | 345° |
| 2026-04-26 16:59 | 11.02053 | -61.53357 | 25228 ft | 372 kts | 345° |
| 2026-04-26 16:59 | 11.07033 | -61.54630 | 24099 ft | 366 kts | 345° |
| 2026-04-26 17:00 | 11.11950 | -61.55887 | 22928 ft | 361 kts | 345° |
| 2026-04-26 17:00 | 11.16759 | -61.57117 | 21836 ft | 353 kts | 346° |
| 2026-04-26 17:00 | 11.19132 | -61.57721 | 21298 ft | 350 kts | 345° |
| 2026-04-26 17:01 | 11.21481 | -61.58323 | 20768 ft | 347 kts | 346° |
| 2026-04-26 17:01 | 11.23822 | -61.58921 | 20237 ft | 346 kts | 345° |
| 2026-04-26 17:01 | 11.26150 | -61.59516 | 19713 ft | 344 kts | 346° |
| 2026-04-26 17:01 | 11.28463 | -61.60109 | 19188 ft | 341 kts | 346° |
| 2026-04-26 17:02 | 11.30756 | -61.60693 | 18664 ft | 339 kts | 346° |
| 2026-04-26 17:02 | 11.33033 | -61.61279 | 18124 ft | 337 kts | 346° |
| 2026-04-26 17:02 | 11.35295 | -61.61855 | 17597 ft | 333 kts | 346° |
| 2026-04-26 17:02 | 11.37530 | -61.62430 | 17086 ft | 329 kts | 346° |
| 2026-04-26 17:03 | 11.39739 | -61.62993 | 16582 ft | 326 kts | 346° |
| 2026-04-26 17:03 | 11.41929 | -61.63555 | 16084 ft | 324 kts | 346° |
| 2026-04-26 17:03 | 11.44110 | -61.64113 | 15585 ft | 322 kts | 346° |
| 2026-04-26 17:03 | 11.46277 | -61.64668 | 15101 ft | 320 kts | 346° |
| 2026-04-26 17:04 | 11.48435 | -61.65222 | 14610 ft | 319 kts | 346° |
| 2026-04-26 17:04 | 11.50568 | -61.65775 | 14128 ft | 313 kts | 344° |
| 2026-04-26 17:04 | 11.52464 | -61.66780 | 13627 ft | 307 kts | 321° |
| 2026-04-26 17:04 | 11.54127 | -61.68110 | 13152 ft | 301 kts | 322° |
| 2026-04-26 17:05 | 11.55764 | -61.69405 | 12691 ft | 296 kts | 321° |
| 2026-04-26 17:05 | 11.57370 | -61.70695 | 12244 ft | 292 kts | 321° |
| 2026-04-26 17:05 | 11.58956 | -61.71965 | 11799 ft | 289 kts | 321° |
| 2026-04-26 17:05 | 11.60537 | -61.73218 | 11360 ft | 286 kts | 321° |
| 2026-04-26 17:06 | 11.62100 | -61.74466 | 10924 ft | 285 kts | 321° |
| 2026-04-26 17:06 | 11.63657 | -61.75706 | 10487 ft | 284 kts | 321° |
| 2026-04-26 17:06 | 11.65209 | -61.76943 | 10060 ft | 283 kts | 321° |
| 2026-04-26 17:06 | 11.66757 | -61.78180 | 9595 ft | 282 kts | 321° |
| 2026-04-26 17:07 | 11.68297 | -61.79404 | 9170 ft | 280 kts | 321° |
| 2026-04-26 17:07 | 11.69825 | -61.80627 | 8741 ft | 278 kts | 321° |
| 2026-04-26 17:07 | 11.71345 | -61.81836 | 8310 ft | 276 kts | 321° |
| 2026-04-26 17:07 | 11.72853 | -61.83042 | 7888 ft | 275 kts | 321° |
| 2026-04-26 17:08 | 11.74356 | -61.84239 | 7469 ft | 274 kts | 321° |
| 2026-04-26 17:08 | 11.75851 | -61.85434 | 7050 ft | 273 kts | 321° |
| 2026-04-26 17:08 | 11.77342 | -61.86624 | 6636 ft | 272 kts | 321° |
| 2026-04-26 17:08 | 11.78813 | -61.87795 | 6212 ft | 271 kts | 321° |
| 2026-04-26 17:09 | 11.80309 | -61.88995 | 5785 ft | 269 kts | 321° |
| 2026-04-26 17:09 | 11.80787 | -61.89376 | 5649 ft | 269 kts | 322° |
| 2026-04-26 17:09 | 11.83227 | -61.91323 | 4967 ft | 265 kts | 322° |
| 2026-04-26 17:09 | 11.84625 | -61.92438 | 4561 ft | 241 kts | 321° |
| 2026-04-26 17:10 | 11.85887 | -61.93448 | 4199 ft | 225 kts | 322° |
| 2026-04-26 17:10 | 11.87121 | -61.94432 | 3866 ft | 225 kts | 322° |
| 2026-04-26 17:10 | 11.88358 | -61.95421 | 3524 ft | 227 kts | 322° |
| 2026-04-26 17:10 | 11.89610 | -61.96419 | 3185 ft | 228 kts | 323° |
| 2026-04-26 17:11 | 11.91016 | -61.97060 | 3029 ft | 218 kts | 356° |
| 2026-04-26 17:11 | 11.92488 | -61.97095 | 3001 ft | 206 kts | 1° |
| 2026-04-26 17:11 | 11.93888 | -61.97094 | 2989 ft | 196 kts | 4° |
| 2026-04-26 17:11 | 11.95225 | -61.97078 | 2984 ft | 188 kts | 3° |
| 2026-04-26 17:12 | 11.97669 | -61.97066 | 2935 ft | 161 kts | 5° |
| 2026-04-26 17:12 | 11.98745 | -61.96954 | 2810 ft | 151 kts | 25° |
| 2026-04-26 17:13 | 12.00237 | -61.95595 | 2567 ft | 148 kts | 68° |
| 2026-04-26 17:13 | 12.00455 | -61.94939 | 2486 ft | 147 kts | 84° |
| 2026-04-26 17:13 | 12.00476 | -61.92621 | 2214 ft | 133 kts | 94° |
| 2026-04-26 17:14 | 12.00474 | -61.91999 | 2117 ft | 132 kts | 91° |
| 2026-04-26 17:14 | 12.00468 | -61.90145 | 1884 ft | 128 kts | 93° |
| 2026-04-26 17:14 | 12.00460 | -61.89247 | 1768 ft | 125 kts | 92° |
| 2026-04-26 17:15 | 12.00454 | -61.87513 | 1697 ft | 124 kts | 93° |
| 2026-04-26 17:15 | 12.00447 | -61.86610 | 1651 ft | 130 kts | 91° |
| 2026-04-26 17:15 | 12.00440 | -61.85699 | 1546 ft | 127 kts | 92° |
| 2026-04-26 17:16 | 12.00440 | -61.84800 | 1386 ft | 126 kts | 92° |
| 2026-04-26 17:16 | 12.00434 | -61.83897 | 1211 ft | 126 kts | 91° |
| 2026-04-26 17:16 | 12.00428 | -61.83011 | 1018 ft | 124 kts | 92° |
| 2026-04-26 17:16 | 12.00427 | -61.82178 | 799 ft | 109 kts | 93° |
| 2026-04-26 17:17 | 12.00424 | -61.81426 | 521 ft | 105 kts | 96° |
| 2026-04-26 17:17 | 12.00425 | -61.80725 | 313 ft | 97 kts | 96° |
| 2026-04-26 17:17 | 12.00413 | -61.80043 | 71 ft | 92 kts | 91° |
| 2026-04-26 17:17 | 12.00414 | -61.79448 | 31 ft | 73 kts | 90° |
| 2026-04-26 17:18 | 12.00410 | -61.79091 | 38 ft | 25 kts | 91° |
| 2026-04-26 17:18 | 12.00417 | -61.79041 | 38 ft | 2 kts | 90° |
| 2026-04-26 17:18 | 12.00414 | -61.79009 | 38 ft | 7 kts | 90° |
| 2026-04-26 17:18 | 12.00414 | -61.78929 | 38 ft | 15 kts | 89° |
| 2026-04-26 17:19 | 12.00409 | -61.78655 | 39 ft | 17 kts | 90° |
| 2026-04-26 17:19 | 12.00468 | -61.78601 | 38 ft | 15 kts | 0° |
| 2026-04-26 17:19 | 12.00557 | -61.78608 | 36 ft | 11 kts | 320° |
| 2026-04-26 17:20 | 12.00574 | -61.78709 | 36 ft | 9 kts | 269° |
| 2026-04-26 17:20 | 12.00591 | -61.78744 | 36 ft | 11 kts | 285° |
| 2026-04-26 17:20 | 12.00593 | -61.78770 | 36 ft | 0 kts | 268° |